Main page
METAR-TAF:

METAR-TAF

Airports :

Sundsvall–Timrå Airport

Sundsvall-Härnösand, Sweden

latitude: 62-32N, longitude: 017-27E, elevation: 4 m

Current weather observation

The report was made 16 minutes ago, at 02:50 UTC
Wind 1 kt from variable directions
Temperature -2°C
Humidity 100%
Pressure 1022 hPa
Visibility: 8000 m

METAR: ESNN 230250Z AUTO VRB01KT 8000 NCD M02/M02 Q1022

Time: 05:06 (03:06 UTC)

Forecast

The report was made 9 hours and 36 minutes ago, at 17:30 UTC
Forecast valid from 22 at 18 UTC to 22 at 20 UTC
Wind 4 kt from the South/Southeast
Visibility 10 km or more
no clouds below 1500 m and no cumulonimbus

TAF: ESNN 221730Z 2218/2220 15004KT CAVOK

Weather observations and forecasts of more than 4000 airports (METAR and TAF reports).

The available stations are represented by yellow and red dots on the map.

Hover mouse over dot to see the name of the station.

Then click to see weather observations and forecasts.

To change the map : click on the green buttons with a black cross to zoom in, on the green button with a dash to zoom out, or on the green arrows for adjacent maps.


METAR-TAF: